This is the latest recevied weather packets stored in our database for station/object VA3ZFM-10. If no packets are shown the sender has not sent any weather packets the latest 1 day(s).
| Time | Temp. | Humidity | Pressure | Rain* | Wind** | Luminosity | Snow |
|---|---|---|---|---|---|---|---|
| 1836274838 | 7.78° C | 66% | 1024.9 hPa | 0 mm | 0.45 m/s, 39° | - | - |
| 1836274535 | 7.78° C | 66% | 1024.9 hPa | 0 mm | 0 m/s | - | - |
| 1836274389 | 7.78° C | 67% | 1025 hPa | 0 mm | 0 m/s | - | - |
| 1836274235 | 8.33° C | 66% | 1024.9 hPa | 0 mm | 0 m/s | - | - |
| 1836273934 | 8.33° C | 64% | 1024.7 hPa | 0 mm | 0.89 m/s, 19° | - | - |
| 1778060559 | 4.44° C | 74% | 1007.9 hPa | 0 mm | 0 m/s | - | - |
| 1778060257 | 4.44° C | 75% | 1007.9 hPa | 0 mm | 0 m/s | - | - |
| 1778059954 | 4.44° C | 73% | 1008.2 hPa | 0 mm | 0 m/s | - | - |
| 1778059651 | 4.44° C | 74% | 1007.9 hPa | 0 mm | 0 m/s | - | - |
| 1778059349 | 4.44° C | 73% | 1008 hPa | 0 mm | 0 m/s | - | - |
| 1778059046 | 4.44° C | 73% | 1008.3 hPa | 0 mm | 0 m/s | - | - |
| 1778058744 | 4.44° C | 72% | 1008.1 hPa | 0 mm | 0 m/s | - | - |
| 1778058441 | 4.44° C | 73% | 1008.4 hPa | 0 mm | 0 m/s | - | - |
| 1778058138 | 4.44° C | 71% | 1008.7 hPa | 0 mm | 0 m/s | - | - |
| 1778057835 | 4.44° C | 69% | 1008.2 hPa | 0 mm | 0 m/s | - | - |
| 1778057531 | 4.44° C | 68% | 1008.2 hPa | 0 mm | 0 m/s | - | - |
| 1778057228 | 4.44° C | 69% | 1007.8 hPa | 0 mm | 0 m/s | - | - |
| 1778056924 | 4.44° C | 67% | 1007.9 hPa | 0 mm | 0 m/s | - | - |
| 1778056621 | 4.44° C | 68% | 1008.2 hPa | 0 mm | 0 m/s | - | - |
| 1778056319 | 4.44° C | 68% | 1007.8 hPa | 0 mm | 0 m/s | - | - |
| 1778056016 | 4.44° C | 70% | 1007.7 hPa | 0 mm | 0 m/s | - | - |
| 1778055716 | 4.44° C | 68% | 1007.8 hPa | 0 mm | 0 m/s | - | - |
| 1778055415 | 4.44° C | 71% | 1007.8 hPa | 0 mm | 0 m/s | - | - |
| 1778055112 | 4.44° C | 69% | 1007.7 hPa | 0 mm | 0 m/s | - | - |
| 1778054810 | 4.44° C | 69% | 1007.7 hPa | 0 mm | 0 m/s | - | - |
* Rain latest hour (hover to see other rain measurements)
** Current wind speed in m/s (hover to see current wind gust speed)